createdAt,value
2017-09-05T00:00:51.622Z,8.70
2017-09-05T00:03:19.070Z,9.40
2017-09-05T00:05:46.545Z,8.47
2017-09-05T00:08:15.418Z,9.13
2017-09-05T00:10:44.454Z,8.60
2017-09-05T00:13:30.574Z,8.70
2017-09-05T00:16:07.946Z,9.00
2017-09-05T00:31:59.997Z,8.57
2017-09-05T00:34:27.446Z,8.50
2017-09-05T00:36:54.910Z,9.57
2017-09-05T00:39:22.394Z,9.40
2017-09-05T00:41:49.859Z,10.70
2017-09-05T00:44:17.314Z,10.30
2017-09-05T00:46:44.799Z,10.17
2017-09-05T00:49:12.260Z,10.60
2017-09-05T00:51:39.714Z,11.43
2017-09-05T00:54:07.194Z,11.77
2017-09-05T00:56:34.645Z,11.17
2017-09-05T00:59:02.098Z,11.90
2017-09-05T01:01:29.574Z,12.87
2017-09-05T01:03:57.030Z,12.63
2017-09-05T01:06:24.491Z,12.60
2017-09-05T01:08:51.966Z,13.70
2017-09-05T01:11:19.422Z,13.80
2017-09-05T01:13:46.890Z,12.90
2017-09-05T01:16:14.374Z,14.03
2017-09-05T01:18:41.830Z,13.20
2017-09-05T01:21:09.286Z,13.83
2017-09-05T01:23:36.762Z,14.90
2017-09-05T01:26:04.214Z,14.30
2017-09-05T01:28:31.666Z,14.90
2017-09-05T01:30:59.143Z,15.13
2017-09-05T01:33:26.601Z,14.67
2017-09-05T01:35:54.058Z,15.90
2017-09-05T01:38:21.539Z,15.00
2017-09-05T01:40:49.031Z,15.33
2017-09-05T01:43:16.487Z,16.10
2017-09-05T01:45:43.967Z,17.10
2017-09-05T01:48:11.434Z,16.30
2017-09-05T01:50:38.900Z,17.23
2017-09-05T01:53:06.382Z,17.00
2017-09-05T01:55:33.837Z,18.27
2017-09-05T01:58:01.290Z,18.23
2017-09-05T02:00:28.774Z,17.80
2017-09-05T02:02:56.225Z,15.93
2017-09-05T02:05:23.682Z,15.83
2017-09-05T02:07:51.166Z,15.13
2017-09-05T02:10:18.622Z,14.93
2017-09-05T02:12:46.086Z,16.73
2017-09-05T02:15:13.578Z,19.07
2017-09-05T02:17:41.034Z,19.50
2017-09-05T02:20:08.485Z,20.90
2017-09-05T02:22:35.962Z,19.83
2017-09-05T02:25:03.426Z,21.10
2017-09-05T02:27:30.922Z,21.40
2017-09-05T02:29:58.435Z,25.53
2017-09-05T02:32:25.914Z,25.47
2017-09-05T02:34:53.394Z,26.50
2017-09-05T02:37:20.846Z,27.47
2017-09-05T02:39:48.306Z,24.53
2017-09-05T02:42:15.815Z,24.97
2017-09-05T02:44:43.273Z,26.30
2017-09-05T02:47:10.755Z,26.30
2017-09-05T02:49:38.242Z,26.33
2017-09-05T02:52:05.703Z,27.80
2017-09-05T02:54:33.158Z,29.17
2017-09-05T02:57:00.651Z,30.63
2017-09-05T02:59:28.112Z,27.60
2017-09-05T03:01:55.573Z,25.00
2017-09-05T03:04:23.050Z,27.37
2017-09-05T03:06:50.531Z,26.47
2017-09-05T03:09:17.983Z,27.50
2017-09-05T03:11:45.461Z,28.03
2017-09-05T03:14:12.918Z,26.57
2017-09-05T03:16:40.374Z,26.70
2017-09-05T03:19:07.855Z,29.40
2017-09-05T03:21:35.312Z,27.70
2017-09-05T03:24:02.766Z,28.93
2017-09-05T03:26:30.246Z,29.20
2017-09-05T03:28:57.707Z,29.50
2017-09-05T03:31:25.161Z,32.43
2017-09-05T03:33:52.642Z,29.83
2017-09-05T03:36:20.190Z,29.53
2017-09-05T03:38:47.646Z,29.70
2017-09-05T03:41:15.134Z,27.00
2017-09-05T03:43:42.593Z,26.27
2017-09-05T03:46:10.047Z,24.87
2017-09-05T03:48:37.525Z,25.87
2017-09-05T03:51:04.982Z,23.23
2017-09-05T03:53:32.431Z,23.30
2017-09-05T03:55:59.910Z,22.53
2017-09-05T03:58:27.366Z,21.93
2017-09-05T04:00:54.851Z,23.20
2017-09-05T04:03:22.336Z,19.83
2017-09-05T04:05:49.777Z,22.20
2017-09-05T04:08:17.254Z,23.40
2017-09-05T04:10:44.710Z,20.27
2017-09-05T04:13:12.163Z,21.07
2017-09-05T04:15:39.658Z,24.97
2017-09-05T04:18:07.115Z,28.80
2017-09-05T04:20:34.578Z,33.57
2017-09-05T04:23:02.058Z,36.80
2017-09-05T04:25:29.518Z,39.90
2017-09-05T04:27:56.982Z,41.27
2017-09-05T04:30:24.466Z,40.67
2017-09-05T04:32:51.926Z,42.93
2017-09-05T04:35:19.385Z,41.53
2017-09-05T04:37:46.870Z,37.80
2017-09-05T04:40:14.327Z,37.17
2017-09-05T04:42:41.790Z,34.70
2017-09-05T04:45:09.270Z,36.80
2017-09-05T04:47:36.730Z,39.27
2017-09-05T04:50:04.186Z,36.30
2017-09-05T04:52:31.682Z,34.30
2017-09-05T04:54:59.138Z,31.73
2017-09-05T04:57:26.618Z,30.50
2017-09-05T04:59:54.097Z,30.00
2017-09-05T05:02:21.551Z,28.47
2017-09-05T05:04:49.010Z,25.67
2017-09-05T05:07:16.487Z,25.00
2017-09-05T05:09:43.943Z,23.90
2017-09-05T05:12:11.402Z,25.97
2017-09-05T05:14:38.887Z,24.30
2017-09-05T05:17:06.342Z,24.70
2017-09-05T05:19:33.802Z,21.60
2017-09-05T05:22:01.277Z,21.90
2017-09-05T05:24:28.733Z,21.00
2017-09-05T05:26:56.195Z,21.07
2017-09-05T05:29:23.669Z,20.87
2017-09-05T05:31:51.142Z,20.50
2017-09-05T05:34:18.598Z,19.90
2017-09-05T05:36:46.079Z,20.83
2017-09-05T05:39:13.537Z,21.33
2017-09-05T05:41:40.996Z,19.87
2017-09-05T05:44:08.480Z,19.80
2017-09-05T05:46:35.934Z,17.80
2017-09-05T05:49:03.387Z,19.83
2017-09-05T05:51:30.866Z,17.93
2017-09-05T05:53:58.322Z,19.53
2017-09-05T05:56:25.774Z,19.20
2017-09-05T05:58:53.254Z,19.47
2017-09-05T06:01:20.711Z,18.23
2017-09-05T06:03:48.162Z,18.20
2017-09-05T06:06:15.638Z,19.97
2017-09-05T06:08:43.094Z,18.70
2017-09-05T06:11:10.551Z,20.87
2017-09-05T06:13:38.106Z,19.20
2017-09-05T06:16:05.563Z,19.40
2017-09-05T06:18:33.018Z,19.37
2017-09-05T06:21:00.501Z,19.90
2017-09-05T06:23:27.954Z,20.77
2017-09-05T06:25:55.413Z,22.10
2017-09-05T06:28:22.894Z,20.83
2017-09-05T06:30:50.349Z,20.50
2017-09-05T06:33:17.810Z,18.07
2017-09-05T06:35:45.289Z,22.07
2017-09-05T06:38:12.748Z,20.17
2017-09-05T06:40:40.207Z,20.20
2017-09-05T06:43:07.690Z,20.57
2017-09-05T06:45:35.141Z,19.50
2017-09-05T06:48:02.687Z,22.10
2017-09-05T06:50:30.162Z,18.60
2017-09-05T06:52:57.613Z,20.50
2017-09-05T06:55:25.104Z,19.70
2017-09-05T06:57:52.599Z,18.47
2017-09-05T07:00:20.058Z,20.33
2017-09-05T07:02:47.522Z,19.97
2017-09-05T07:05:15.001Z,21.40
2017-09-05T07:07:42.499Z,21.67
2017-09-05T07:10:09.950Z,20.23
2017-09-05T07:12:37.425Z,21.50
2017-09-05T07:15:04.883Z,20.60
2017-09-05T07:17:32.339Z,20.03
2017-09-05T07:19:59.817Z,20.30
2017-09-05T07:22:27.271Z,19.17
2017-09-05T07:24:54.734Z,20.23
2017-09-05T07:27:22.213Z,21.93
2017-09-05T07:29:49.670Z,19.50
2017-09-05T07:32:17.146Z,20.07
2017-09-05T07:34:44.634Z,18.20
2017-09-05T07:37:12.095Z,17.13
2017-09-05T07:39:39.554Z,17.00
2017-09-05T07:42:07.042Z,16.33
2017-09-05T07:44:34.502Z,17.40
2017-09-05T07:47:01.986Z,18.30
2017-09-05T07:49:29.462Z,15.90
2017-09-05T07:51:56.923Z,14.90
2017-09-05T07:54:24.402Z,14.70
2017-09-05T07:56:51.858Z,14.03
2017-09-05T07:59:19.314Z,15.13
2017-09-05T08:01:46.798Z,14.90
2017-09-05T08:04:14.269Z,13.90
2017-09-05T08:06:41.725Z,15.13
2017-09-05T08:09:09.211Z,14.67
2017-09-05T08:11:36.669Z,14.17
2017-09-05T08:14:04.129Z,15.67
2017-09-05T08:16:31.616Z,13.90
2017-09-05T08:18:59.079Z,13.83
2017-09-05T08:21:26.559Z,13.30
2017-09-05T08:23:54.020Z,12.50
2017-09-05T08:26:21.478Z,14.07
2017-09-05T08:28:48.957Z,11.70
2017-09-05T08:31:16.413Z,13.00
2017-09-05T08:33:43.870Z,12.77
2017-09-05T08:36:11.354Z,12.03
2017-09-05T08:38:38.815Z,12.40
2017-09-05T08:41:06.294Z,12.97
2017-09-05T08:43:33.753Z,13.30
2017-09-05T08:46:02.936Z,17.07
2017-09-05T08:48:30.445Z,14.57
2017-09-05T08:50:57.902Z,14.80
2017-09-05T08:53:25.386Z,13.50
2017-09-05T08:55:52.842Z,14.47
2017-09-05T08:58:20.311Z,15.70
2017-09-05T09:00:47.806Z,15.17
2017-09-05T09:03:15.279Z,16.23
2017-09-05T09:05:42.735Z,17.40
2017-09-05T09:08:10.215Z,14.53
2017-09-05T09:10:37.674Z,12.50
2017-09-05T09:13:05.135Z,13.70
2017-09-05T09:15:32.659Z,13.10
2017-09-05T09:18:00.119Z,12.93
2017-09-05T09:20:27.584Z,12.77
2017-09-05T09:22:55.067Z,12.87
2017-09-05T09:25:22.526Z,12.33
2017-09-05T09:27:50.014Z,12.97
2017-09-05T09:30:17.516Z,14.00
2017-09-05T09:32:44.974Z,13.30
2017-09-05T09:35:12.430Z,10.80
2017-09-05T09:37:39.922Z,12.47
2017-09-05T09:40:07.382Z,11.77
2017-09-05T09:42:34.837Z,11.20
2017-09-05T09:45:02.328Z,10.53
2017-09-05T09:47:29.795Z,12.30
2017-09-05T09:49:57.264Z,11.90
2017-09-05T09:52:24.755Z,12.27
2017-09-05T09:54:52.214Z,10.20
2017-09-05T09:57:19.719Z,10.67
2017-09-05T09:59:47.223Z,11.40
2017-09-05T10:02:14.687Z,11.27
2017-09-05T10:04:42.150Z,10.10
2017-09-05T10:07:09.679Z,10.43
2017-09-05T10:09:37.134Z,10.00
2017-09-05T10:12:04.586Z,10.37
2017-09-05T10:14:32.075Z,10.37
2017-09-05T10:16:59.542Z,10.43
2017-09-05T10:19:27.011Z,11.00
2017-09-05T10:21:54.486Z,9.80
2017-09-05T10:24:21.938Z,11.23
2017-09-05T10:26:49.409Z,10.37
2017-09-05T10:29:16.885Z,9.03
2017-09-05T10:31:44.347Z,11.03
2017-09-05T10:34:11.802Z,10.20
2017-09-05T10:36:39.290Z,10.27
2017-09-05T10:39:06.751Z,9.80
2017-09-05T10:41:34.234Z,10.40
2017-09-05T10:44:01.722Z,11.83
2017-09-05T10:46:29.203Z,10.10
2017-09-05T10:48:56.655Z,9.07
2017-09-05T10:51:24.158Z,9.50
2017-09-05T10:53:51.627Z,9.63
2017-09-05T10:56:19.110Z,9.27
2017-09-05T10:58:46.581Z,9.63
2017-09-05T11:01:14.056Z,10.13
2017-09-05T11:03:41.506Z,9.30
2017-09-05T11:06:08.982Z,9.17
2017-09-05T11:08:36.438Z,8.83
2017-09-05T11:11:03.890Z,9.27
2017-09-05T11:13:31.381Z,10.90
2017-09-05T11:15:58.836Z,9.33
2017-09-05T11:18:26.294Z,10.70
2017-09-05T11:20:53.914Z,10.03
2017-09-05T11:23:21.398Z,10.63
2017-09-05T11:25:48.862Z,9.53
2017-09-05T11:28:16.343Z,9.70
2017-09-05T11:30:43.793Z,9.47
2017-09-05T11:33:11.245Z,9.27
2017-09-05T11:35:38.724Z,9.27
2017-09-05T11:38:06.178Z,9.10
2017-09-05T11:40:33.638Z,9.20
2017-09-05T11:43:01.123Z,9.70
2017-09-05T11:45:28.595Z,9.50
2017-09-05T11:47:56.051Z,10.00
2017-09-05T11:50:23.530Z,9.13
2017-09-05T11:52:50.986Z,9.07
2017-09-05T11:55:18.452Z,8.63
2017-09-05T11:57:45.930Z,8.13
2017-09-05T12:00:13.382Z,7.57
2017-09-05T12:02:40.831Z,7.67
2017-09-05T12:05:08.320Z,8.50
2017-09-05T12:07:35.773Z,9.00
2017-09-05T12:10:03.230Z,8.87
2017-09-05T12:12:30.711Z,8.50
2017-09-05T12:14:58.185Z,7.50
2017-09-05T12:17:25.689Z,8.00
2017-09-05T12:19:53.145Z,8.23
2017-09-05T12:22:20.614Z,7.43
2017-09-05T12:24:48.079Z,8.20
2017-09-05T12:27:15.550Z,7.10
2017-09-05T12:29:43.004Z,8.30
2017-09-05T12:32:10.460Z,8.97
2017-09-05T12:34:37.934Z,7.80
2017-09-05T12:37:05.439Z,7.53
2017-09-05T12:39:32.950Z,7.80
2017-09-05T12:42:00.471Z,6.70
2017-09-05T12:44:28.101Z,6.27
2017-09-05T12:46:55.603Z,6.60
2017-09-05T12:49:23.532Z,7.10
2017-09-05T12:51:51.369Z,7.67
2017-09-05T12:54:18.996Z,7.63
2017-09-05T12:56:46.593Z,7.13
2017-09-05T12:59:14.043Z,7.00
2017-09-05T13:01:41.490Z,6.83
2017-09-05T13:04:08.974Z,6.60
2017-09-05T13:06:36.438Z,6.60
2017-09-05T13:09:03.894Z,6.93
2017-09-05T13:11:31.386Z,8.30
2017-09-05T13:13:58.842Z,7.87
2017-09-05T13:16:26.327Z,7.70
2017-09-05T13:18:53.853Z,8.10
2017-09-05T13:21:21.310Z,7.80
2017-09-05T13:23:48.777Z,8.03
2017-09-05T13:26:16.238Z,8.67
2017-09-05T13:28:43.715Z,8.63
2017-09-05T13:31:11.220Z,9.30
2017-09-05T13:33:38.671Z,8.10
2017-09-05T13:36:06.184Z,8.43
2017-09-05T13:38:33.650Z,9.20
2017-09-05T13:41:01.103Z,8.53
2017-09-05T13:43:28.589Z,8.60
2017-09-05T13:45:56.054Z,9.30
2017-09-05T13:48:23.502Z,8.20
2017-09-05T13:50:50.992Z,8.37
2017-09-05T13:53:18.451Z,8.53
2017-09-05T13:55:45.907Z,8.67
2017-09-05T13:58:13.382Z,8.40
2017-09-05T14:00:40.857Z,7.77
2017-09-05T14:03:08.306Z,7.70
2017-09-05T14:05:35.782Z,8.80
2017-09-05T14:08:03.254Z,8.27
2017-09-05T14:10:30.812Z,7.23
2017-09-05T14:12:58.303Z,7.57
2017-09-05T14:15:25.820Z,7.30
2017-09-05T14:17:53.270Z,7.30
2017-09-05T14:20:20.750Z,6.97
2017-09-05T14:22:48.222Z,6.97
2017-09-05T14:25:15.678Z,7.23
2017-09-05T14:27:43.157Z,7.20
2017-09-05T14:30:10.614Z,7.10
2017-09-05T14:32:38.094Z,6.47
2017-09-05T14:35:05.570Z,7.10
2017-09-05T14:37:33.030Z,7.07
2017-09-05T14:40:00.477Z,6.47
2017-09-05T14:42:27.959Z,6.00
2017-09-05T14:44:55.419Z,6.10
2017-09-05T14:47:22.881Z,6.50
2017-09-05T14:49:50.370Z,6.10
2017-09-05T14:52:17.823Z,6.30
2017-09-05T14:54:45.292Z,6.00
2017-09-05T14:57:12.791Z,6.53
2017-09-05T14:59:40.242Z,5.90
2017-09-05T15:02:07.692Z,5.50
2017-09-05T15:04:35.165Z,5.10
2017-09-05T15:07:02.626Z,5.60
2017-09-05T15:09:30.110Z,5.70
2017-09-05T15:11:57.570Z,5.43
2017-09-05T15:14:25.023Z,4.50
2017-09-05T15:16:52.514Z,4.90
2017-09-05T15:19:20.014Z,4.27
2017-09-05T15:21:47.471Z,4.43
2017-09-05T15:24:14.950Z,4.50
2017-09-05T15:26:42.405Z,4.30
2017-09-05T15:29:09.855Z,4.70
2017-09-05T15:31:37.342Z,4.73
2017-09-05T15:34:04.802Z,4.60
2017-09-05T15:36:32.254Z,5.30
2017-09-05T15:38:59.730Z,4.70
2017-09-05T15:41:27.183Z,4.50
2017-09-05T15:43:54.638Z,5.23
2017-09-05T15:46:22.118Z,4.33
2017-09-05T15:48:49.571Z,4.87
2017-09-05T15:51:17.030Z,5.30
2017-09-05T15:53:44.502Z,5.00
2017-09-05T15:56:11.950Z,5.43
2017-09-05T15:58:39.407Z,5.40
2017-09-05T16:01:06.886Z,5.10
2017-09-05T16:03:34.335Z,5.37
2017-09-05T16:06:01.782Z,6.10
2017-09-05T16:08:29.267Z,5.53
2017-09-05T16:10:56.718Z,4.77
2017-09-05T16:13:24.170Z,5.47
2017-09-05T16:15:51.666Z,5.40
2017-09-05T16:18:19.144Z,5.77
2017-09-05T16:20:46.603Z,5.23
2017-09-05T16:23:14.075Z,5.93
2017-09-05T16:25:41.575Z,6.47
2017-09-05T16:28:09.553Z,5.20
2017-09-05T16:30:37.038Z,6.77
2017-09-05T16:33:04.510Z,6.23
2017-09-05T16:35:31.962Z,5.83
2017-09-05T16:37:59.415Z,5.83
2017-09-05T16:40:26.897Z,6.00
2017-09-05T16:42:54.355Z,5.67
2017-09-05T16:45:21.811Z,6.23
2017-09-05T16:47:49.287Z,7.37
2017-09-05T16:50:16.740Z,5.90
2017-09-05T16:52:44.199Z,7.20
2017-09-05T16:55:11.682Z,7.07
2017-09-05T16:57:39.141Z,8.80
2017-09-05T17:00:06.616Z,9.70
2017-09-05T17:02:34.097Z,7.70
2017-09-05T17:05:01.564Z,7.30
2017-09-05T17:07:29.023Z,7.20
2017-09-05T17:09:56.506Z,7.97
2017-09-05T17:12:23.966Z,7.20
2017-09-05T17:14:51.432Z,7.70
2017-09-05T17:17:18.910Z,8.03
2017-09-05T17:19:46.430Z,6.73
2017-09-05T17:22:13.901Z,7.60
2017-09-05T17:24:41.385Z,6.90
2017-09-05T17:27:08.858Z,7.43
2017-09-05T17:29:36.632Z,5.93
2017-09-05T17:32:04.142Z,6.63
2017-09-05T17:34:31.787Z,6.83
2017-09-05T17:36:59.431Z,6.70
2017-09-05T17:39:27.065Z,7.27
2017-09-05T17:41:54.605Z,7.10
2017-09-05T17:44:22.142Z,7.67
2017-09-05T17:46:49.795Z,7.20
2017-09-05T17:49:17.364Z,15.20
2017-09-05T17:51:44.922Z,13.47
2017-09-05T17:54:12.488Z,9.70
2017-09-05T17:56:40.728Z,8.47
2017-09-05T17:59:08.535Z,8.50
2017-09-05T18:01:36.379Z,7.10
2017-09-05T18:04:04.096Z,6.93
2017-09-05T18:06:32.076Z,6.63
2017-09-05T18:09:00.003Z,7.57
2017-09-05T18:11:27.987Z,9.37
2017-09-05T18:13:55.849Z,7.50
2017-09-05T18:16:23.723Z,7.90
2017-09-05T18:18:51.911Z,7.97
2017-09-05T18:21:20.157Z,7.87
2017-09-05T18:23:48.517Z,7.23
2017-09-05T18:26:17.049Z,6.83
2017-09-05T18:28:45.414Z,7.30
2017-09-05T18:31:13.797Z,7.07
2017-09-05T18:33:42.490Z,7.67
2017-09-05T18:36:10.960Z,7.10
2017-09-05T18:38:39.699Z,7.30
2017-09-05T18:41:08.177Z,8.00
2017-09-05T18:43:36.796Z,8.77
2017-09-05T18:46:05.459Z,10.53
2017-09-05T18:48:34.272Z,9.17
2017-09-05T18:51:02.726Z,8.70
2017-09-05T18:53:31.341Z,8.60
2017-09-05T18:55:59.972Z,8.43
2017-09-05T18:58:28.462Z,8.67
2017-09-05T19:00:57.047Z,7.50
2017-09-05T19:03:26.219Z,8.20
2017-09-05T19:05:54.693Z,11.33
2017-09-05T19:08:23.225Z,10.97
2017-09-05T19:10:51.816Z,11.10
2017-09-05T19:13:20.245Z,9.83
2017-09-05T19:15:49.588Z,9.40
2017-09-05T19:18:18.165Z,9.50
2017-09-05T19:20:46.613Z,8.83
2017-09-05T19:23:15.105Z,8.67
2017-09-05T19:25:44.177Z,9.00
2017-09-05T19:28:12.629Z,8.37
2017-09-05T19:30:41.106Z,10.43
2017-09-05T19:33:09.684Z,8.60
2017-09-05T19:35:38.124Z,9.90
2017-09-05T19:38:07.549Z,9.03
2017-09-05T19:40:36.200Z,10.70
2017-09-05T19:43:04.711Z,10.70
2017-09-05T19:45:33.520Z,10.17
2017-09-05T19:48:02.139Z,10.63
2017-09-05T19:50:31.753Z,11.20
2017-09-05T19:53:00.555Z,11.30
2017-09-05T19:55:29.291Z,10.47
2017-09-05T19:57:57.758Z,11.00
2017-09-05T20:00:26.217Z,21.43
2017-09-05T20:02:54.755Z,12.93
2017-09-05T20:05:23.182Z,11.73
2017-09-05T20:07:52.019Z,11.17
2017-09-05T20:10:20.820Z,10.40
2017-09-05T20:12:49.284Z,10.17
2017-09-05T20:15:17.754Z,10.23
2017-09-05T20:17:46.576Z,9.70
2017-09-05T20:20:15.040Z,10.70
2017-09-05T20:22:43.790Z,10.10
2017-09-05T20:25:12.354Z,12.83
2017-09-05T20:27:40.791Z,15.40
2017-09-05T20:30:09.489Z,16.13
2017-09-05T20:32:38.021Z,12.20
2017-09-05T20:35:06.500Z,10.20
2017-09-05T20:37:35.151Z,10.07
2017-09-05T20:40:03.577Z,10.30
2017-09-05T20:42:32.033Z,9.80
2017-09-05T20:45:00.625Z,11.50
2017-09-05T20:47:29.151Z,10.87
2017-09-05T20:49:57.514Z,11.17
2017-09-05T20:52:26.418Z,11.07
2017-09-05T20:54:54.810Z,10.20
2017-09-05T20:57:23.177Z,11.50
2017-09-05T20:59:51.678Z,11.83
2017-09-05T21:02:20.351Z,11.70
2017-09-05T21:04:49.011Z,11.70
2017-09-05T21:07:17.775Z,11.97
2017-09-05T21:09:46.207Z,12.00
2017-09-05T21:12:14.669Z,11.80
2017-09-05T21:14:43.075Z,11.13
2017-09-05T21:17:11.476Z,13.23
2017-09-05T21:19:40.213Z,12.87
2017-09-05T21:22:08.730Z,13.30
2017-09-05T21:24:37.163Z,11.97
2017-09-05T21:27:05.852Z,12.23
2017-09-05T21:29:33.948Z,13.00
2017-09-05T21:32:02.380Z,13.20
2017-09-05T21:34:30.200Z,11.90
2017-09-05T21:36:57.795Z,12.40
2017-09-05T21:39:25.395Z,11.60
2017-09-05T21:41:52.977Z,12.87
2017-09-05T21:44:20.596Z,14.20
2017-09-05T21:46:48.189Z,13.47
2017-09-05T21:49:15.666Z,13.93
2017-09-05T21:51:43.131Z,12.50
2017-09-05T21:54:10.625Z,14.07
2017-09-05T21:56:38.095Z,13.90
2017-09-05T21:59:05.558Z,13.13
2017-09-05T22:01:33.038Z,14.63
2017-09-05T22:04:00.498Z,31.10
2017-09-05T22:06:27.970Z,35.27
2017-09-05T22:08:55.464Z,57.20
2017-09-05T22:11:22.926Z,60.50
2017-09-05T22:13:56.141Z,47.97
2017-09-05T22:16:29.243Z,49.03
2017-09-05T22:19:02.431Z,46.00
2017-09-05T22:21:29.891Z,35.07
2017-09-05T22:23:57.359Z,26.80
2017-09-05T22:26:30.414Z,24.47
2017-09-05T22:29:03.580Z,20.50
2017-09-05T22:31:31.124Z,20.37
2017-09-05T22:33:58.590Z,16.30
2017-09-05T22:36:26.070Z,16.57
2017-09-05T22:38:53.529Z,17.30
2017-09-05T22:41:20.984Z,17.80
2017-09-05T22:43:48.462Z,19.27
2017-09-05T22:46:15.919Z,19.47
2017-09-05T22:48:43.373Z,19.70
2017-09-05T22:51:10.865Z,18.53
2017-09-05T22:53:38.331Z,22.47
2017-09-05T22:56:05.799Z,22.27
2017-09-05T22:58:33.282Z,26.87
2017-09-05T23:01:00.746Z,20.90
2017-09-05T23:03:28.202Z,17.80
2017-09-05T23:05:55.702Z,12.60
2017-09-05T23:08:23.175Z,11.13
2017-09-05T23:10:50.625Z,8.27
2017-09-05T23:13:18.121Z,6.63
2017-09-05T23:15:45.579Z,6.80
2017-09-05T23:18:13.031Z,5.90
2017-09-05T23:20:40.524Z,6.90
2017-09-05T23:23:07.974Z,5.93
2017-09-05T23:25:35.474Z,6.70
2017-09-05T23:28:02.954Z,6.70
2017-09-05T23:30:30.406Z,5.57
2017-09-05T23:32:57.858Z,5.90
2017-09-05T23:35:25.338Z,5.73
2017-09-05T23:37:52.790Z,6.20
2017-09-05T23:40:20.238Z,5.60
2017-09-05T23:42:47.714Z,6.37
2017-09-05T23:45:15.166Z,6.10
2017-09-05T23:47:42.618Z,6.67
2017-09-05T23:50:10.094Z,5.80
2017-09-05T23:52:37.543Z,5.57
2017-09-05T23:55:04.998Z,4.90
2017-09-05T23:57:32.480Z,5.50
2017-09-05T23:59:59.951Z,5.50
